Time;durP1;ratioP1;P1;durP2;ratioP2;P2;SDS_P1;SDS_P2;PMS_P1;PMS_P2;Temp;Humidity;BMP_temperature;BMP_pressure;BME280_temperature;BME280_humidity;BME280_pressure;Samples;Min_cycle;Max_cycle;Signal;HPM_P1;HPM_P2
2022/06/19 00:02:15;;;;;;;5.95;2.90;;;22.10;60.50;;;;;;5039329;28;20629;-77
2022/06/19 00:04:42;;;;;;;5.50;2.97;;;22.10;60.60;;;;;;5039263;28;20128;-78
2022/06/19 00:07:10;;;;;;;5.03;3.03;;;22.00;60.60;;;;;;5040796;28;20033;-78
2022/06/19 00:09:36;;;;;;;4.72;2.75;;;22.10;60.50;;;;;;5040932;28;20067;-78
2022/06/19 00:12:02;;;;;;;3.05;2.60;;;22.10;60.60;;;;;;5041583;28;20025;-78
2022/06/19 00:14:28;;;;;;;3.83;2.90;;;22.00;60.60;;;;;;5040234;28;20068;-74
2022/06/19 00:16:54;;;;;;;3.63;2.50;;;22.00;61.20;;;;;;5040315;28;20056;-77
2022/06/19 00:19:20;;;;;;;4.18;2.53;;;22.10;60.60;;;;;;5038912;28;20088;-78
2022/06/19 00:21:47;;;;;;;7.45;2.90;;;22.00;60.50;;;;;;5038802;28;20087;-78
2022/06/19 00:24:13;;;;;;;3.85;2.50;;;22.00;60.50;;;;;;5041388;28;20045;-76
2022/06/19 00:26:39;;;;;;;3.47;2.40;;;22.00;60.50;;;;;;5038684;28;20036;-77
2022/06/19 00:29:05;;;;;;;3.78;2.45;;;22.10;60.50;;;;;;5040591;28;20086;-75
2022/06/19 00:31:31;;;;;;;4.53;2.42;;;22.10;60.50;;;;;;5038339;28;20037;-75
2022/06/19 00:33:57;;;;;;;4.85;2.58;;;22.00;60.40;;;;;;5038678;28;20058;-76
2022/06/19 00:36:26;;;;;;;4.18;2.80;;;22.00;60.40;;;;;;5042828;28;20037;-76
2022/06/19 00:38:53;;;;;;;6.05;2.92;;;22.00;60.40;;;;;;5040360;28;20482;-77
2022/06/19 00:41:19;;;;;;;3.95;2.33;;;22.00;60.30;;;;;;5038845;28;20439;-78
2022/06/19 00:44:07;;;;;;;5.13;2.50;;;22.00;60.30;;;;;;5039215;28;20048;-78
2022/06/19 00:46:45;;;;;;;5.00;2.35;;;22.00;60.30;;;;;;5039463;28;20133;-72
2022/06/19 00:49:16;;;;;;;3.45;2.47;;;22.00;60.40;;;;;;5037576;28;20096;-78
2022/06/19 00:51:43;;;;;;;4.30;2.60;;;22.00;60.40;;;;;;5040735;28;20540;-77
2022/06/19 00:54:11;;;;;;;3.35;2.13;;;22.00;60.50;;;;;;5044468;28;20054;-73
2022/06/19 00:56:37;;;;;;;5.28;2.67;;;22.00;60.50;;;;;;5042480;28;20103;-75
2022/06/19 00:59:05;;;;;;;4.45;2.63;;;22.00;60.50;;;;;;5045310;28;20143;-77
2022/06/19 01:01:32;;;;;;;2.95;2.50;;;22.00;60.60;;;;;;5040655;28;20037;-77
2022/06/19 01:04:20;;;;;;;4.30;2.28;;;22.00;60.50;;;;;;5044097;28;20459;-78
2022/06/19 01:06:48;;;;;;;5.05;2.63;;;22.00;60.70;;;;;;5060190;28;20033;-78
2022/06/19 01:09:15;;;;;;;3.63;2.50;;;22.00;60.70;;;;;;5044766;28;20522;-78
2022/06/19 01:11:41;;;;;;;2.75;2.17;;;21.90;60.60;;;;;;5044173;28;20033;-78
2022/06/19 01:14:12;;;;;;;2.70;2.38;;;22.00;60.70;;;;;;5043647;28;20044;-77
2022/06/19 01:16:38;;;;;;;4.40;2.30;;;22.00;60.60;;;;;;5043090;28;20527;-78
2022/06/19 01:19:08;;;;;;;7.55;2.70;;;21.90;60.50;;;;;;5044441;28;20041;-78
2022/06/19 01:22:09;;;;;;;4.20;2.65;;;21.90;60.70;;;;;;5041680;28;20128;-77
2022/06/19 01:25:01;;;;;;;3.17;2.03;;;21.90;60.60;;;;;;5009739;28;20095;-77
2022/06/19 01:30:16;;;;;;;4.35;2.50;;;21.90;60.60;;;;;;5044661;28;20068;-78
2022/06/19 01:32:44;;;;;;;3.40;2.47;;;22.00;60.60;;;;;;5041103;28;20056;-78
2022/06/19 01:35:11;;;;;;;2.70;2.50;;;21.90;60.50;;;;;;5042092;28;20581;-75
2022/06/19 01:37:40;;;;;;;4.35;2.45;;;21.90;60.70;;;;;;5043706;28;20087;-74
2022/06/19 01:40:18;;;;;;;3.17;2.15;;;21.90;61.50;;;;;;5042306;28;20063;-78
2022/06/19 01:42:44;;;;;;;3.75;2.75;;;21.90;61.00;;;;;;5040940;28;20051;-75
2022/06/19 01:45:11;;;;;;;3.42;2.20;;;21.90;60.90;;;;;;5042865;28;20044;-75
2022/06/19 01:47:37;;;;;;;3.80;2.13;;;21.90;60.90;;;;;;5043023;28;20029;-77
2022/06/19 01:50:08;;;;;;;4.32;2.35;;;21.90;60.80;;;;;;5041832;28;20092;-78
2022/06/19 01:52:34;;;;;;;3.63;2.72;;;21.90;60.90;;;;;;5043335;28;20120;-77
2022/06/19 01:55:16;;;;;;;4.50;2.30;;;21.90;60.90;;;;;;5043497;28;20041;-78
2022/06/19 01:57:51;;;;;;;2.88;2.50;;;21.90;60.80;;;;;;5041266;28;20400;-75
2022/06/19 02:00:23;;;;;;;4.78;2.40;;;21.90;60.70;;;;;;5041691;28;20076;-78
2022/06/19 02:03:12;;;;;;;3.45;2.50;;;21.90;60.70;;;;;;5041317;28;20049;-75
2022/06/19 02:05:39;;;;;;;5.72;2.40;;;21.90;60.40;;;;;;5041966;28;20037;-77
2022/06/19 02:08:06;;;;;;;5.07;2.38;;;21.90;60.60;;;;;;5041530;28;20036;-75
2022/06/19 02:10:34;;;;;;;2.35;2.05;;;21.90;60.70;;;;;;5042736;28;20083;-78
2022/06/19 02:13:01;;;;;;;5.38;2.38;;;21.90;60.70;;;;;;5040859;28;20046;-79
2022/06/19 02:15:27;;;;;;;3.25;2.22;;;21.90;60.50;;;;;;5040865;28;20040;-77
2022/06/19 02:17:54;;;;;;;7.05;2.42;;;21.90;60.50;;;;;;5042383;28;20098;-76
2022/06/19 02:20:21;;;;;;;4.50;2.22;;;21.90;60.50;;;;;;5041217;28;20034;-78
2022/06/19 02:22:48;;;;;;;3.53;2.30;;;21.90;60.40;;;;;;5045007;28;20040;-78
2022/06/19 02:25:14;;;;;;;4.18;2.10;;;22.00;60.50;;;;;;5040327;28;20399;-77
2022/06/19 02:27:40;;;;;;;2.25;1.90;;;21.90;60.40;;;;;;5044731;28;20040;-77
2022/06/19 02:30:10;;;;;;;3.55;2.30;;;21.90;60.50;;;;;;5042516;28;20028;-78
2022/06/19 02:32:47;;;;;;;4.72;2.17;;;21.90;60.60;;;;;;5041088;28;20061;-78
2022/06/19 02:35:22;;;;;;;5.25;2.30;;;21.90;60.50;;;;;;5040651;28;20041;-78
2022/06/19 02:37:51;;;;;;;4.65;2.10;;;21.90;60.30;;;;;;5042611;28;20041;-78
2022/06/19 02:40:53;;;;;;;7.22;2.30;;;21.90;60.50;;;;;;5040937;28;20163;-78
2022/06/19 02:43:26;;;;;;;3.90;2.00;;;21.90;60.30;;;;;;5039497;28;20041;-78
2022/06/19 02:45:53;;;;;;;2.20;1.80;;;22.00;60.40;;;;;;5042074;28;20128;-75
2022/06/19 02:48:26;;;;;;;4.85;2.10;;;21.90;60.20;;;;;;5041118;28;20419;-79
2022/06/19 02:50:54;;;;;;;2.67;1.60;;;22.00;60.50;;;;;;5041277;28;20029;-78
2022/06/19 02:53:20;;;;;;;2.10;1.88;;;22.00;60.60;;;;;;5043183;28;20116;-78
2022/06/19 02:55:47;;;;;;;2.90;2.10;;;22.00;60.50;;;;;;5040153;28;20117;-73
2022/06/19 02:58:14;;;;;;;2.72;1.80;;;22.00;60.50;;;;;;5042750;28;20503;-78
2022/06/19 03:00:40;;;;;;;4.70;1.80;;;22.00;60.50;;;;;;5041584;28;20568;-78
2022/06/19 03:03:16;;;;;;;2.70;2.05;;;22.00;60.40;;;;;;5040977;28;20110;-73
2022/06/19 03:05:42;;;;;;;4.18;2.03;;;22.10;60.30;;;;;;5039660;28;20503;-78
2022/06/19 03:08:08;;;;;;;4.38;2.25;;;22.00;60.30;;;;;;5040494;28;20063;-79
2022/06/19 03:10:35;;;;;;;3.17;1.83;;;22.00;60.20;;;;;;5040392;28;20032;-78
2022/06/19 03:13:01;;;;;;;3.28;1.92;;;22.10;60.40;;;;;;5040379;28;20186;-78
2022/06/19 03:15:27;;;;;;;3.92;1.98;;;22.10;60.20;;;;;;5038363;28;20064;-77
2022/06/19 03:17:53;;;;;;;3.05;2.10;;;22.10;60.20;;;;;;5041746;28;20492;-78
2022/06/19 03:20:22;;;;;;;2.85;1.85;;;22.10;60.10;;;;;;5056909;28;20040;-76
2022/06/19 03:22:48;;;;;;;5.00;2.10;;;22.10;60.00;;;;;;5026469;28;20037;-78
2022/06/19 03:25:14;;;;;;;6.25;2.30;;;22.10;60.00;;;;;;5040877;28;20055;-78
2022/06/19 03:27:40;;;;;;;3.35;1.85;;;22.20;60.10;;;;;;5039931;28;20029;-79
2022/06/19 03:30:07;;;;;;;4.47;2.00;;;22.20;60.10;;;;;;5040601;28;20039;-75
2022/06/19 03:32:33;;;;;;;3.50;1.85;;;22.20;60.20;;;;;;5041306;28;20075;-78
2022/06/19 03:34:59;;;;;;;2.05;1.75;;;22.20;60.10;;;;;;5040637;28;20042;-77
2022/06/19 03:37:25;;;;;;;2.13;1.73;;;22.20;60.10;;;;;;5040375;28;20404;-79
2022/06/19 03:39:51;;;;;;;2.15;1.88;;;22.20;60.20;;;;;;5037546;28;20218;-79
2022/06/19 03:42:17;;;;;;;3.33;1.67;;;22.30;60.10;;;;;;5041243;28;20077;-79
2022/06/19 03:44:43;;;;;;;1.90;1.70;;;22.40;60.00;;;;;;5040939;28;20491;-79
2022/06/19 03:47:13;;;;;;;3.53;1.80;;;22.40;60.00;;;;;;5038896;28;20079;-78
2022/06/19 03:49:38;;;;;;;2.67;2.05;;;22.40;59.90;;;;;;5042784;28;20041;-78
2022/06/19 03:52:05;;;;;;;2.20;1.52;;;22.50;59.80;;;;;;5040186;28;20041;-79
2022/06/19 03:54:31;;;;;;;3.25;1.80;;;22.60;59.80;;;;;;5040305;28;20442;-79
2022/06/19 03:56:56;;;;;;;2.22;1.65;;;22.60;59.70;;;;;;5039323;28;20043;-79
2022/06/19 03:59:22;;;;;;;5.15;1.63;;;22.60;59.80;;;;;;5026601;28;20079;-79
2022/06/19 04:01:48;;;;;;;2.60;1.60;;;22.60;59.60;;;;;;5040467;28;20044;-79
2022/06/19 04:04:14;;;;;;;2.38;1.80;;;22.60;59.70;;;;;;5043812;28;20129;-79
2022/06/19 04:06:42;;;;;;;1.80;1.60;;;22.60;59.70;;;;;;5040704;28;20041;-79
2022/06/19 04:09:12;;;;;;;3.78;1.95;;;22.60;59.70;;;;;;5038965;28;20112;-78
2022/06/19 04:11:38;;;;;;;3.35;1.65;;;22.60;59.60;;;;;;5038378;28;20033;-76
2022/06/19 04:14:04;;;;;;;3.55;1.73;;;22.60;59.70;;;;;;5041413;28;20515;-79
2022/06/19 04:16:32;;;;;;;3.30;1.80;;;22.70;59.60;;;;;;5039589;28;20473;-79
2022/06/19 04:19:01;;;;;;;2.00;1.80;;;22.70;59.60;;;;;;5041579;28;20307;-79
2022/06/19 04:21:30;;;;;;;3.63;1.85;;;22.70;59.60;;;;;;5039326;28;20103;-76
2022/06/19 04:23:58;;;;;;;2.47;1.70;;;22.70;59.30;;;;;;5041617;28;20084;-79
2022/06/19 04:26:28;;;;;;;1.80;1.50;;;22.70;59.50;;;;;;5039571;28;20057;-79
2022/06/19 04:28:54;;;;;;;2.72;1.67;;;22.70;59.70;;;;;;5043568;28;20034;-79
2022/06/19 04:31:20;;;;;;;3.05;1.67;;;22.80;60.00;;;;;;5043535;28;20479;-78
2022/06/19 04:33:46;;;;;;;2.33;1.70;;;22.80;60.00;;;;;;5043582;28;20155;-75
2022/06/19 04:36:16;;;;;;;3.17;1.80;;;22.70;59.60;;;;;;5043730;28;20027;-79
2022/06/19 04:38:44;;;;;;;3.17;1.38;;;22.70;59.60;;;;;;5041216;28;20392;-77
2022/06/19 04:41:15;;;;;;;2.00;1.50;;;22.80;59.70;;;;;;5046908;28;20037;-79
2022/06/19 04:43:42;;;;;;;1.88;1.77;;;22.80;59.70;;;;;;5044753;28;20065;-79
2022/06/19 04:46:08;;;;;;;2.55;1.60;;;22.80;59.70;;;;;;5044295;28;20038;-79
2022/06/19 04:48:35;;;;;;;3.55;1.80;;;22.80;59.70;;;;;;5044077;28;20449;-79
2022/06/19 04:51:01;;;;;;;3.70;1.42;;;22.80;59.60;;;;;;5046874;28;20111;-79
2022/06/19 04:53:27;;;;;;;3.97;1.70;;;22.80;59.60;;;;;;5046201;28;20148;-79
2022/06/19 04:55:53;;;;;;;2.65;1.70;;;22.90;59.90;;;;;;5044068;28;20029;-79
2022/06/19 04:58:22;;;;;;;4.15;1.60;;;22.90;59.70;;;;;;5041497;28;20067;-80
2022/06/19 05:00:50;;;;;;;4.63;1.98;;;22.90;59.50;;;;;;5043192;28;20060;-78
2022/06/19 05:03:18;;;;;;;5.07;1.83;;;22.90;59.50;;;;;;5044062;28;20033;-79
2022/06/19 05:05:44;;;;;;;2.42;1.58;;;23.00;59.50;;;;;;5044254;28;20060;-79
2022/06/19 05:08:10;;;;;;;3.80;1.48;;;23.00;59.80;;;;;;5044014;28;20110;-75
2022/06/19 05:10:36;;;;;;;2.08;1.67;;;23.10;59.80;;;;;;5042859;28;20080;-78
2022/06/19 05:13:04;;;;;;;2.40;1.90;;;23.10;59.80;;;;;;5042168;28;20043;-75
2022/06/19 05:15:30;;;;;;;2.28;1.50;;;23.20;59.80;;;;;;5042577;28;20049;-78
2022/06/19 05:17:56;;;;;;;3.08;1.52;;;23.20;59.50;;;;;;5046254;28;20368;-78
2022/06/19 05:20:23;;;;;;;5.38;1.60;;;23.40;59.60;;;;;;5042353;28;20039;-78
2022/06/19 05:22:49;;;;;;;1.60;1.45;;;23.60;59.90;;;;;;5042924;28;20538;-78
2022/06/19 05:25:15;;;;;;;2.03;1.58;;;23.60;60.00;;;;;;5041065;28;20516;-79
2022/06/19 05:27:42;;;;;;;3.00;1.35;;;23.70;59.70;;;;;;5041350;28;20083;-78
2022/06/19 05:30:11;;;;;;;1.77;1.55;;;23.70;59.70;;;;;;5042711;28;20443;-76
2022/06/19 05:32:37;;;;;;;1.73;1.40;;;23.80;59.80;;;;;;5042686;28;20041;-79
2022/06/19 05:35:03;;;;;;;2.13;1.70;;;23.70;59.80;;;;;;5041523;28;20045;-78
2022/06/19 05:37:29;;;;;;;2.10;1.83;;;23.80;59.70;;;;;;5041943;28;20040;-78
2022/06/19 05:39:56;;;;;;;3.65;1.73;;;23.80;59.30;;;;;;5041076;28;20422;-79
2022/06/19 05:42:22;;;;;;;6.18;1.60;;;23.80;59.50;;;;;;5044580;28;20048;-79
2022/06/19 05:44:48;;;;;;;2.83;1.90;;;23.80;59.50;;;;;;5041496;28;20022;-79
2022/06/19 05:47:14;;;;;;;3.05;1.80;;;23.90;59.70;;;;;;5045472;28;20030;-77
2022/06/19 05:49:40;;;;;;;1.70;1.58;;;23.90;59.60;;;;;;5042265;28;20040;-76
2022/06/19 05:52:16;;;;;;;2.08;1.58;;;24.00;59.80;;;;;;5039795;28;20037;-76
2022/06/19 05:54:43;;;;;;;2.85;1.60;;;24.00;60.00;;;;;;5042166;28;20506;-79
2022/06/19 05:57:09;;;;;;;1.70;1.60;;;24.10;60.70;;;;;;5042811;28;20399;-77
2022/06/19 05:59:35;;;;;;;3.25;1.70;;;24.20;62.10;;;;;;5042599;28;20036;-79
2022/06/19 06:02:01;;;;;;;2.00;1.63;;;24.30;61.00;;;;;;5040523;28;20037;-79
2022/06/19 06:04:27;;;;;;;2.10;1.70;;;24.30;61.60;;;;;;5041909;28;21025;-79
2022/06/19 06:06:53;;;;;;;1.85;1.70;;;24.40;61.20;;;;;;5040976;28;20067;-78
2022/06/19 06:09:19;;;;;;;5.40;1.63;;;24.40;61.70;;;;;;5046050;28;20102;-79
2022/06/19 06:11:45;;;;;;;2.80;1.67;;;24.50;61.70;;;;;;5043352;28;20036;-79
2022/06/19 06:14:12;;;;;;;4.00;1.60;;;24.50;61.60;;;;;;5043727;28;20419;-79
2022/06/19 06:16:38;;;;;;;1.83;1.58;;;24.60;61.70;;;;;;5041990;28;20091;-77
2022/06/19 06:19:04;;;;;;;1.85;1.48;;;24.70;60.60;;;;;;5043475;28;20535;-79
2022/06/19 06:21:30;;;;;;;5.40;1.88;;;24.80;59.80;;;;;;5041624;28;20082;-79
2022/06/19 06:23:55;;;;;;;2.25;1.40;;;24.90;59.90;;;;;;5041875;28;20554;-79
2022/06/19 06:26:24;;;;;;;2.17;1.20;;;25.00;59.40;;;;;;5041343;28;20033;-79
2022/06/19 06:28:52;;;;;;;1.45;1.30;;;25.10;59.00;;;;;;5041172;28;20037;-78
2022/06/19 06:31:19;;;;;;;1.85;1.27;;;25.10;58.60;;;;;;5044583;28;20029;-79
2022/06/19 06:33:46;;;;;;;1.65;1.30;;;25.20;59.10;;;;;;5039587;28;20720;-79
2022/06/19 06:36:12;;;;;;;1.40;1.20;;;25.20;58.70;;;;;;5043092;28;20036;-79
2022/06/19 06:38:38;;;;;;;1.75;1.42;;;25.20;58.70;;;;;;5041501;28;20033;-79
2022/06/19 06:41:07;;;;;;;2.17;1.30;;;25.20;58.80;;;;;;5041787;28;20028;-79
2022/06/19 06:43:36;;;;;;;4.35;1.60;;;25.20;59.00;;;;;;5043832;28;20414;-77
2022/06/19 06:46:07;;;;;;;4.30;1.30;;;25.20;59.40;;;;;;5042377;28;20033;-79
2022/06/19 06:48:33;;;;;;;3.03;1.30;;;25.20;59.40;;;;;;5042132;28;20033;-78
2022/06/19 06:50:59;;;;;;;1.90;1.50;;;25.20;59.40;;;;;;5040092;28;20514;-77
2022/06/19 06:53:25;;;;;;;2.67;1.52;;;25.10;59.90;;;;;;5040114;28;20068;-78
2022/06/19 06:55:56;;;;;;;1.80;1.20;;;25.10;59.70;;;;;;5038536;28;20029;-78
2022/06/19 06:58:22;;;;;;;3.50;1.70;;;25.10;59.50;;;;;;5040468;28;20408;-80
2022/06/19 07:00:48;;;;;;;2.03;1.30;;;25.10;59.50;;;;;;5040933;28;20033;-79
2022/06/19 07:03:13;;;;;;;3.30;1.52;;;25.00;59.20;;;;;;5041087;28;20553;-79
2022/06/19 07:05:39;;;;;;;2.75;1.55;;;25.00;59.20;;;;;;5041690;28;20040;-77
2022/06/19 07:08:05;;;;;;;5.28;1.63;;;24.90;59.80;;;;;;5040805;28;20102;-79
2022/06/19 07:10:31;;;;;;;4.72;1.50;;;24.90;60.10;;;;;;5040367;28;20519;-80
2022/06/19 07:12:58;;;;;;;1.42;1.20;;;25.00;59.80;;;;;;5041382;28;20653;-78
2022/06/19 07:15:24;;;;;;;2.20;1.25;;;25.00;59.80;;;;;;5040874;28;20044;-80
2022/06/19 07:17:50;;;;;;;3.13;1.50;;;25.00;60.00;;;;;;5041275;28;20032;-80
2022/06/19 07:20:17;;;;;;;1.95;1.10;;;25.00;59.70;;;;;;5040387;28;20033;-80
2022/06/19 07:22:43;;;;;;;3.05;1.60;;;25.00;60.00;;;;;;5041813;28;20082;-79
2022/06/19 07:25:16;;;;;;;3.50;1.50;;;25.00;59.50;;;;;;5039934;28;20036;-78
2022/06/19 07:27:42;;;;;;;2.28;1.25;;;25.00;59.80;;;;;;5041876;28;20060;-79
2022/06/19 07:30:09;;;;;;;1.30;1.20;;;25.10;59.50;;;;;;5041262;28;20067;-80
2022/06/19 07:32:35;;;;;;;3.17;1.60;;;25.10;59.50;;;;;;5041812;28;20041;-78
2022/06/19 07:35:01;;;;;;;2.30;1.27;;;25.10;59.40;;;;;;5040652;28;20526;-79
2022/06/19 07:37:27;;;;;;;3.67;1.40;;;25.10;60.00;;;;;;5040850;28;20037;-74
2022/06/19 07:39:55;;;;;;;4.15;1.80;;;25.00;59.60;;;;;;5042085;28;20041;-80
2022/06/19 07:42:21;;;;;;;3.72;1.83;;;25.00;60.30;;;;;;5039181;28;20191;-74
2022/06/19 07:44:47;;;;;;;1.90;1.40;;;25.00;59.80;;;;;;5042888;28;20225;-75
2022/06/19 07:50:10;;;;;;;2.53;1.13;;;24.80;58.90;;;;;;5037477;28;20087;-79
2022/06/19 07:52:36;;;;;;;4.78;1.55;;;24.70;59.10;;;;;;5040626;28;20526;-80
2022/06/19 07:55:05;;;;;;;3.15;1.38;;;24.70;59.10;;;;;;5042542;28;20072;-79
2022/06/19 07:57:31;;;;;;;2.80;1.27;;;24.70;59.20;;;;;;5038669;28;20052;-77
2022/06/19 07:59:57;;;;;;;4.72;1.50;;;24.60;58.60;;;;;;5043171;28;20085;-80
2022/06/19 08:02:24;;;;;;;2.45;1.10;;;24.60;58.70;;;;;;5041972;28;20230;-77
2022/06/19 08:04:50;;;;;;;1.20;1.08;;;24.70;59.40;;;;;;5044609;28;20055;-80
2022/06/19 08:07:17;;;;;;;1.88;1.27;;;24.70;58.90;;;;;;5045077;28;20151;-80
2022/06/19 08:09:43;;;;;;;2.35;1.20;;;24.70;58.30;;;;;;5044584;28;20029;-77
2022/06/19 08:12:10;;;;;;;2.30;1.50;;;24.60;58.60;;;;;;5044201;28;20021;-79
2022/06/19 08:14:36;;;;;;;4.85;1.67;;;24.60;58.20;;;;;;5043619;28;20087;-80
2022/06/19 08:17:02;;;;;;;1.60;1.17;;;24.60;58.60;;;;;;5045473;28;20029;-80
2022/06/19 08:19:28;;;;;;;2.88;1.40;;;24.80;59.10;;;;;;5045724;28;20458;-76
2022/06/19 08:21:54;;;;;;;1.65;1.20;;;24.80;59.00;;;;;;5043733;28;20082;-77
2022/06/19 08:24:20;;;;;;;2.67;1.52;;;24.80;59.30;;;;;;5045856;28;20029;-80
2022/06/19 08:26:52;;;;;;;2.10;1.15;;;24.80;59.90;;;;;;5043396;28;20090;-76
2022/06/19 08:29:17;;;;;;;6.25;1.55;;;24.90;60.80;;;;;;5042182;28;20029;-80
2022/06/19 08:31:44;;;;;;;4.82;1.45;;;24.80;59.10;;;;;;5044418;28;20522;-80
2022/06/19 08:34:09;;;;;;;4.10;1.27;;;24.90;59.60;;;;;;5043388;28;20040;-75
2022/06/19 08:36:36;;;;;;;5.45;1.38;;;24.90;59.50;;;;;;5043524;28;20026;-80
2022/06/19 08:39:08;;;;;;;2.83;1.33;;;25.00;61.80;;;;;;5043079;28;20618;-80
2022/06/19 08:42:03;;;;;;;3.40;1.17;;;25.00;59.80;;;;;;5044361;28;20037;-75
2022/06/19 08:44:47;;;;;;;2.25;1.20;;;25.00;59.70;;;;;;5047130;28;20114;-78
2022/06/19 08:47:18;;;;;;;3.40;1.73;;;25.00;61.00;;;;;;5043072;28;20029;-79
2022/06/19 08:49:56;;;;;;;5.28;1.92;;;25.00;60.00;;;;;;5043131;28;20060;-80
2022/06/19 08:52:46;;;;;;;2.17;1.40;;;25.10;60.80;;;;;;5042937;28;20033;-80
2022/06/19 08:55:32;;;;;;;4.65;1.52;;;25.10;60.40;;;;;;5045389;28;20119;-80
2022/06/19 08:58:33;;;;;;;4.65;1.40;;;25.10;60.20;;;;;;5042777;28;20094;-80
2022/06/19 09:01:17;;;;;;;3.70;1.40;;;25.10;60.80;;;;;;5039442;28;20037;-79
2022/06/19 09:07:05;;;;;;;2.88;1.42;;;25.10;61.80;;;;;;5042240;28;20110;-80
2022/06/19 09:09:49;;;;;;;3.22;1.35;;;25.10;61.20;;;;;;5044325;28;20590;-80
2022/06/19 09:12:24;;;;;;;5.70;1.45;;;25.10;60.00;;;;;;5043958;28;20407;-79
2022/06/19 09:15:08;;;;;;;2.47;1.42;;;25.10;60.70;;;;;;5042505;28;20106;-80
2022/06/19 09:17:53;;;;;;;5.63;1.95;;;25.20;60.20;;;;;;5043289;28;20535;-80
2022/06/19 09:20:34;;;;;;;4.60;1.48;;;25.20;59.50;;;;;;5045193;28;20091;-78
2022/06/19 09:23:12;;;;;;;3.85;1.70;;;25.20;60.00;;;;;;5042042;28;20040;-78
2022/06/19 09:26:02;;;;;;;2.90;1.70;;;25.20;59.50;;;;;;5042394;28;20029;-78
2022/06/19 09:28:50;;;;;;;2.78;1.55;;;25.20;60.00;;;;;;5045330;28;20033;-80
2022/06/19 09:31:55;;;;;;;4.40;1.40;;;25.20;61.10;;;;;;5043909;28;20040;-81
2022/06/19 09:34:29;;;;;;;4.22;1.55;;;25.20;60.90;;;;;;5030492;28;20515;-79
2022/06/19 09:37:09;;;;;;;5.95;1.77;;;25.20;60.50;;;;;;5042196;28;20492;-79
2022/06/19 09:40:00;;;;;;;6.85;1.75;;;25.30;61.10;;;;;;5045576;28;20128;-79
2022/06/19 09:42:32;;;;;;;3.67;1.60;;;25.30;60.80;;;;;;5041650;28;20040;-79
2022/06/19 09:45:13;;;;;;;3.15;1.40;;;25.30;60.80;;;;;;5041398;28;20033;-80
2022/06/19 09:47:42;;;;;;;4.50;1.85;;;25.30;60.00;;;;;;5042404;28;20032;-77
2022/06/19 09:50:23;;;;;;;4.45;1.90;;;25.30;59.70;;;;;;5043101;28;20499;-74
2022/06/19 09:53:06;;;;;;;6.43;2.00;;;25.30;60.10;;;;;;5040509;28;20034;-75
2022/06/19 09:55:40;;;;;;;2.47;1.77;;;25.40;61.50;;;;;;5043151;28;20037;-78
2022/06/19 09:58:20;;;;;;;3.17;1.95;;;25.30;61.50;;;;;;5041338;28;20044;-79
2022/06/19 10:00:50;;;;;;;4.82;1.75;;;25.40;61.50;;;;;;5041996;28;20587;-79
2022/06/19 10:03:23;;;;;;;3.97;2.10;;;25.40;61.60;;;;;;5043895;28;20025;-79
2022/06/19 10:05:58;;;;;;;5.25;1.73;;;25.40;61.50;;;;;;5041151;28;20052;-77
2022/06/19 10:08:37;;;;;;;4.35;1.85;;;25.40;61.60;;;;;;5043516;28;20057;-79
2022/06/19 10:11:09;;;;;;;3.92;1.92;;;25.40;60.90;;;;;;5041447;28;20064;-80
2022/06/19 10:13:43;;;;;;;4.15;1.73;;;25.40;61.80;;;;;;5041594;28;20116;-77
2022/06/19 10:16:21;;;;;;;2.90;1.60;;;25.40;60.70;;;;;;5039859;28;20083;-75
2022/06/19 10:18:51;;;;;;;3.10;1.70;;;25.40;61.10;;;;;;5042972;28;21210;-74
2022/06/19 10:24:52;;;;;;;7.28;2.42;;;25.40;59.80;;;;;;5039465;28;20072;-79
2022/06/19 10:27:34;;;;;;;3.30;1.83;;;25.40;60.00;;;;;;5043533;28;20044;-80
2022/06/19 10:30:22;;;;;;;2.17;1.98;;;25.40;61.30;;;;;;5042962;28;20543;-79
2022/06/19 10:32:51;;;;;;;3.00;2.22;;;25.40;61.10;;;;;;5042579;28;20037;-73
2022/06/19 10:35:23;;;;;;;5.05;2.10;;;25.40;60.60;;;;;;5040450;28;20600;-80
2022/06/19 10:37:57;;;;;;;4.93;1.98;;;25.40;60.00;;;;;;5040995;28;20080;-79
2022/06/19 10:40:31;;;;;;;2.40;1.58;;;25.30;59.80;;;;;;5041846;28;20032;-77
2022/06/19 10:43:18;;;;;;;4.40;1.80;;;25.30;59.10;;;;;;5040392;28;20052;-77
2022/06/19 10:45:54;;;;;;;2.47;2.00;;;25.40;60.90;;;;;;5040812;28;20090;-79
2022/06/19 10:48:25;;;;;;;2.45;2.00;;;25.40;60.10;;;;;;5040759;28;20406;-79
2022/06/19 10:51:22;;;;;;;4.43;1.70;;;25.40;60.10;;;;;;5039244;28;20423;-75
2022/06/19 10:54:36;;;;;;;5.35;2.20;;;25.40;61.90;;;;;;5039558;28;20092;-77
2022/06/19 10:57:10;;;;;;;3.33;1.83;;;25.40;60.20;;;;;;5036292;28;20041;-79
2022/06/19 10:59:36;;;;;;;3.92;1.75;;;25.30;59.70;;;;;;5041089;28;20037;-78
2022/06/19 11:05:36;;;;;;;2.42;1.67;;;25.40;62.00;;;;;;5040138;28;20044;-77
2022/06/19 11:08:02;;;;;;;2.92;1.80;;;25.40;61.60;;;;;;5027366;28;20079;-78
2022/06/19 11:10:41;;;;;;;5.45;2.03;;;25.40;62.30;;;;;;5039924;28;20083;-74
2022/06/19 11:13:08;;;;;;;3.38;2.03;;;25.40;60.70;;;;;;5041677;28;20059;-75
2022/06/19 11:15:41;;;;;;;3.42;2.30;;;25.40;61.40;;;;;;5039820;28;20021;-79
2022/06/19 11:18:17;;;;;;;3.90;2.00;;;25.40;60.00;;;;;;5039758;28;20539;-78
2022/06/19 11:20:53;;;;;;;4.28;2.00;;;25.40;60.40;;;;;;5041799;28;20037;-76
2022/06/19 11:23:40;;;;;;;4.80;2.40;;;25.40;60.40;;;;;;5039723;28;20041;-78
2022/06/19 11:26:19;;;;;;;2.72;2.38;;;25.40;60.10;;;;;;5039795;28;20032;-79
2022/06/19 11:28:59;;;;;;;3.20;2.00;;;25.40;60.30;;;;;;5040125;28;20055;-77
2022/06/19 11:31:27;;;;;;;4.72;2.40;;;25.40;60.40;;;;;;5039534;28;20043;-79
2022/06/19 11:33:56;;;;;;;3.88;2.20;;;25.40;60.10;;;;;;5043093;28;20033;-78
2022/06/19 11:36:43;;;;;;;5.32;2.47;;;25.40;60.00;;;;;;5041758;28;20402;-80
2022/06/19 11:39:28;;;;;;;6.03;2.25;;;25.40;60.10;;;;;;5038999;28;20048;-79
2022/06/19 11:41:54;;;;;;;;;;;25.40;59.70;;;;;;5040256;28;20400;-79
2022/06/19 11:44:21;;;;;;;6.13;2.30;;;25.30;59.60;;;;;;5039399;28;19935;-77
2022/06/19 11:46:52;;;;;;;2.75;2.30;;;25.30;59.90;;;;;;5039392;28;20102;-79
2022/06/19 11:49:25;;;;;;;5.75;2.35;;;25.40;60.00;;;;;;5039350;28;20087;-80
2022/06/19 11:51:53;;;;;;;6.00;2.30;;;25.40;60.80;;;;;;5039159;28;20580;-80
2022/06/19 11:54:26;;;;;;;6.38;2.47;;;25.40;61.10;;;;;;5040764;28;20036;-77
2022/06/19 11:56:53;;;;;;;9.23;2.63;;;25.40;59.50;;;;;;5039018;28;20049;-70
2022/06/19 11:59:39;;;;;;;6.18;2.58;;;25.40;58.90;;;;;;5040497;28;20037;-70
2022/06/19 12:02:27;;;;;;;6.07;2.65;;;25.40;58.90;;;;;;5039226;28;20036;-69
2022/06/19 12:04:57;;;;;;;5.50;2.63;;;25.40;59.20;;;;;;5039713;28;20041;-69
2022/06/19 12:07:26;;;;;;;12.30;3.00;;;25.40;59.40;;;;;;5038861;28;20037;-70
2022/06/19 12:10:14;;;;;;;10.82;2.90;;;25.40;59.40;;;;;;5040482;28;20047;-71
2022/06/19 12:12:56;;;;;;;4.13;2.63;;;25.40;59.80;;;;;;5033478;28;20044;-71
2022/06/19 12:15:29;;;;;;;9.20;2.78;;;25.40;60.40;;;;;;5038652;28;20040;-71
2022/06/19 12:17:59;;;;;;;8.15;2.90;;;25.40;59.90;;;;;;5039210;28;20033;-71
2022/06/19 12:20:31;;;;;;;7.85;2.80;;;25.40;59.80;;;;;;5041206;28;20064;-70
2022/06/19 12:23:15;;;;;;;9.90;2.90;;;25.40;60.20;;;;;;5042009;28;20527;-71
2022/06/19 12:26:13;;;;;;;12.90;3.10;;;25.50;60.10;;;;;;5041280;28;20044;-72
2022/06/19 12:28:51;;;;;;;5.90;2.42;;;25.50;60.00;;;;;;5038164;28;20155;-70
2022/06/19 12:31:19;;;;;;;3.17;2.30;;;25.50;60.10;;;;;;5036923;28;20395;-70
2022/06/19 12:33:45;;;;;;;6.13;2.63;;;25.50;60.20;;;;;;5041129;28;20063;-69
2022/06/19 12:36:17;;;;;;;9.82;2.65;;;25.50;60.40;;;;;;5039718;28;20026;-70
2022/06/19 12:38:44;;;;;;;10.70;2.97;;;25.50;60.30;;;;;;5040033;28;20044;-69
2022/06/19 12:41:13;;;;;;;5.45;2.83;;;25.50;60.50;;;;;;5039726;28;20531;-72
2022/06/19 12:44:07;;;;;;;8.88;3.05;;;25.40;60.20;;;;;;5039919;28;20151;-70
2022/06/19 12:46:54;;;;;;;14.48;3.28;;;25.40;60.40;;;;;;5040014;28;20037;-70
2022/06/19 12:49:38;;;;;;;8.82;3.20;;;25.40;60.80;;;;;;5039695;28;20389;-70
2022/06/19 12:52:50;;;;;;;7.60;2.90;;;25.40;60.80;;;;;;5040913;28;20036;-69
2022/06/19 12:55:18;;;;;;;10.13;3.60;;;25.40;60.80;;;;;;5043577;28;20544;-69
2022/06/19 12:58:15;;;;;;;10.25;3.28;;;25.40;61.10;;;;;;5029030;28;20068;-71
2022/06/19 13:00:47;;;;;;;9.60;2.83;;;25.40;61.30;;;;;;5041882;28;20041;-72
2022/06/19 13:03:31;;;;;;;11.40;3.65;;;25.30;61.60;;;;;;5043368;28;20086;-70
2022/06/19 13:06:14;;;;;;;6.25;3.38;;;25.30;61.40;;;;;;5041589;28;20520;-70
2022/06/19 13:08:52;;;;;;;8.65;3.00;;;25.30;61.30;;;;;;5046500;28;20033;-70
2022/06/19 13:11:30;;;;;;;5.40;3.25;;;25.30;61.20;;;;;;5040521;28;20091;-69
2022/06/19 13:14:13;;;;;;;9.75;3.30;;;25.30;61.70;;;;;;5042761;28;20041;-73
2022/06/19 13:17:09;;;;;;;8.43;3.25;;;25.30;61.80;;;;;;5040770;28;20060;-69
2022/06/19 13:19:57;;;;;;;11.30;3.70;;;25.30;61.70;;;;;;5044315;28;20094;-70
2022/06/19 13:22:42;;;;;;;6.07;3.28;;;25.30;61.60;;;;;;5042881;28;20419;-69
2022/06/19 13:25:19;;;;;;;;;;;25.30;62.10;;;;;;5042898;28;20042;-70
2022/06/19 13:28:17;;;;;;;6.32;2.90;;;25.30;61.70;;;;;;5043479;28;19917;-70